Time;durP1;ratioP1;P1;durP2;ratioP2;P2;SDS_P1;SDS_P2;PMS_P1;PMS_P2;Temp;Humidity;BMP_temperature;BMP_pressure;BME280_temperature;BME280_humidity;BME280_pressure;Samples;Min_cycle;Max_cycle;Signal;HPM_P1;HPM_P2
2023/10/17 00:01:00;;;;;;;4.37;1.50;;;8.60;99.90;;;;;;4918977;29;20233;-75
2023/10/17 00:03:27;;;;;;;3.03;1.43;;;8.60;99.90;;;;;;4919021;29;20209;-75
2023/10/17 00:05:56;;;;;;;2.73;1.20;;;8.70;99.90;;;;;;4918717;29;20642;-76
2023/10/17 00:08:23;;;;;;;1.63;1.20;;;8.70;99.90;;;;;;4918858;29;20304;-76
2023/10/17 00:10:50;;;;;;;4.13;1.37;;;8.70;99.90;;;;;;4918605;29;20260;-77
2023/10/17 00:13:31;;;;;;;4.10;1.50;;;8.70;99.90;;;;;;4918530;29;20701;-76
2023/10/17 00:16:00;;;;;;;5.93;1.80;;;8.60;99.90;;;;;;4918787;29;20280;-75
2023/10/17 00:18:27;;;;;;;3.70;1.57;;;8.70;99.90;;;;;;4918527;29;20312;-77
2023/10/17 00:21:04;;;;;;;4.43;2.10;;;8.60;99.90;;;;;;4918581;29;20318;-76
2023/10/17 00:23:32;;;;;;;4.13;2.10;;;8.60;99.90;;;;;;4918480;29;20213;-76
2023/10/17 00:26:04;;;;;;;3.40;1.63;;;8.60;99.90;;;;;;4918792;29;20205;-76
2023/10/17 00:28:31;;;;;;;3.70;1.60;;;8.70;99.90;;;;;;4918776;29;20309;-76
2023/10/17 00:31:04;;;;;;;2.30;1.30;;;8.70;99.90;;;;;;4918527;29;20237;-76
2023/10/17 00:33:32;;;;;;;2.87;1.70;;;8.70;99.90;;;;;;4918172;29;20218;-76
2023/10/17 00:36:03;;;;;;;3.63;2.00;;;8.90;99.90;;;;;;4918230;29;20244;-77
2023/10/17 00:38:35;;;;;;;3.27;1.60;;;8.80;99.90;;;;;;4918299;29;20664;-76
2023/10/17 00:41:03;;;;;;;3.57;1.50;;;8.80;99.90;;;;;;4918247;29;20320;-77
2023/10/17 00:43:31;;;;;;;4.47;1.87;;;8.80;99.90;;;;;;4918318;29;20300;-77
2023/10/17 00:45:58;;;;;;;2.97;1.70;;;8.80;99.90;;;;;;4917989;29;20220;-76
2023/10/17 00:48:26;;;;;;;4.87;1.60;;;8.70;99.90;;;;;;4917659;29;20252;-76
2023/10/17 00:50:57;;;;;;;2.60;1.53;;;8.60;99.90;;;;;;4918061;29;20233;-76
2023/10/17 00:53:26;;;;;;;4.23;1.67;;;8.60;99.90;;;;;;4917850;29;20209;-76
2023/10/17 00:55:55;;;;;;;3.23;1.83;;;8.60;99.90;;;;;;4918007;29;20206;-76
2023/10/17 00:58:24;;;;;;;4.00;1.73;;;8.60;99.90;;;;;;4917929;29;20676;-76
2023/10/17 01:00:58;;;;;;;3.60;1.97;;;8.60;99.90;;;;;;4917728;29;20324;-77
2023/10/17 01:03:29;;;;;;;4.77;2.67;;;8.70;99.90;;;;;;4917906;29;20672;-76
2023/10/17 01:06:13;;;;;;;4.30;2.07;;;8.70;99.90;;;;;;4917705;29;20241;-76
2023/10/17 01:08:44;;;;;;;4.30;1.87;;;8.70;99.90;;;;;;4917546;29;20760;-76
2023/10/17 01:11:16;;;;;;;4.43;1.80;;;8.70;99.90;;;;;;4917525;29;20225;-76
2023/10/17 01:13:43;;;;;;;3.60;1.90;;;8.70;99.90;;;;;;4917659;29;20214;-76
2023/10/17 01:16:15;;;;;;;4.13;2.27;;;8.70;99.90;;;;;;4917522;29;20245;-77
2023/10/17 01:18:45;;;;;;;5.00;2.00;;;8.70;99.90;;;;;;4917285;29;20691;-76
2023/10/17 01:21:13;;;;;;;4.03;2.33;;;8.60;99.90;;;;;;4917421;29;20231;-76
2023/10/17 01:23:40;;;;;;;3.93;2.00;;;8.60;99.90;;;;;;4917432;29;20232;-76
2023/10/17 01:26:14;;;;;;;4.50;2.20;;;8.50;99.90;;;;;;4917282;29;20213;-76
2023/10/17 01:28:45;;;;;;;4.73;2.13;;;8.50;99.90;;;;;;4917442;29;20216;-77
2023/10/17 01:31:14;;;;;;;6.60;2.23;;;8.60;99.90;;;;;;4917807;29;20233;-76
2023/10/17 01:33:43;;;;;;;7.00;2.20;;;8.60;99.90;;;;;;4917054;29;20276;-76
2023/10/17 01:36:10;;;;;;;4.93;2.73;;;8.60;99.90;;;;;;4917111;29;20644;-76
2023/10/17 01:38:38;;;;;;;5.93;2.63;;;8.70;99.90;;;;;;4917252;29;20221;-76
2023/10/17 01:41:06;;;;;;;4.87;3.20;;;8.80;99.90;;;;;;4917146;29;20268;-76
2023/10/17 01:43:40;;;;;;;4.57;2.37;;;8.70;99.90;;;;;;4917172;29;20714;-77
2023/10/17 01:46:09;;;;;;;11.40;2.57;;;8.70;99.90;;;;;;4917288;29;20245;-77
2023/10/17 01:48:36;;;;;;;5.73;2.43;;;8.70;99.90;;;;;;4917281;29;20216;-76
2023/10/17 01:51:07;;;;;;;5.57;2.23;;;8.70;99.90;;;;;;4916655;29;20271;-76
2023/10/17 01:53:35;;;;;;;4.90;2.70;;;8.70;99.90;;;;;;4916899;29;20220;-76
2023/10/17 01:56:13;;;;;;;5.27;2.60;;;8.70;99.90;;;;;;4917106;29;20210;-76
2023/10/17 01:58:45;;;;;;;7.57;2.23;;;8.70;99.90;;;;;;4916298;29;20224;-77
2023/10/17 02:01:14;;;;;;;6.10;2.87;;;8.70;99.90;;;;;;4916841;29;20262;-77
2023/10/17 02:03:41;;;;;;;5.90;2.80;;;8.60;99.90;;;;;;4916861;29;20209;-76
2023/10/17 02:06:17;;;;;;;4.67;2.20;;;8.80;99.90;;;;;;4916484;29;20241;-77
2023/10/17 02:08:45;;;;;;;8.40;2.70;;;8.70;99.90;;;;;;4916852;29;20681;-76
2023/10/17 02:11:23;;;;;;;6.60;2.83;;;8.70;99.90;;;;;;4918085;29;20269;-76
2023/10/17 02:13:53;;;;;;;6.03;2.87;;;8.60;99.90;;;;;;4916844;29;20209;-76
2023/10/17 02:16:20;;;;;;;6.83;2.83;;;8.60;99.90;;;;;;4916962;29;20217;-76
2023/10/17 02:18:48;;;;;;;5.30;3.10;;;8.60;99.90;;;;;;4916789;29;20210;-76
2023/10/17 02:21:15;;;;;;;7.03;2.67;;;8.60;99.90;;;;;;4916783;29;20244;-76
2023/10/17 02:23:49;;;;;;;5.50;2.73;;;8.50;99.90;;;;;;4916853;29;20214;-77
2023/10/17 02:26:21;;;;;;;8.83;3.10;;;8.50;99.90;;;;;;4916549;29;20692;-76
2023/10/17 02:28:50;;;;;;;7.20;2.57;;;8.50;99.90;;;;;;4916473;29;20209;-76
2023/10/17 02:31:22;;;;;;;7.70;3.13;;;8.60;99.90;;;;;;4916834;29;20272;-76
2023/10/17 02:33:49;;;;;;;7.43;3.37;;;8.60;99.90;;;;;;4916846;29;20217;-77
2023/10/17 02:36:17;;;;;;;10.90;3.20;;;8.50;99.90;;;;;;4916756;29;20248;-76
2023/10/17 02:38:44;;;;;;;5.40;2.97;;;8.50;99.90;;;;;;4916543;29;20206;-76
2023/10/17 02:41:14;;;;;;;5.87;3.10;;;8.50;99.90;;;;;;4916253;29;20241;-77
2023/10/17 02:43:42;;;;;;;4.77;2.70;;;8.40;99.90;;;;;;4916568;29;20216;-76
2023/10/17 02:46:12;;;;;;;5.10;2.77;;;8.40;99.90;;;;;;4916959;29;20337;-75
2023/10/17 02:48:39;;;;;;;7.70;3.37;;;8.40;99.90;;;;;;4916765;29;20216;-75
2023/10/17 02:51:11;;;;;;;5.13;2.77;;;8.30;99.90;;;;;;4916174;29;20256;-74
2023/10/17 02:53:43;;;;;;;5.40;3.00;;;8.30;99.90;;;;;;4916280;29;20930;-75
2023/10/17 02:56:20;;;;;;;7.30;3.40;;;8.40;99.90;;;;;;4916836;29;20210;-75
2023/10/17 02:58:50;;;;;;;5.53;2.60;;;8.40;99.90;;;;;;4916732;29;20268;-75
2023/10/17 03:01:19;;;;;;;5.23;2.63;;;8.40;99.90;;;;;;4916362;29;20329;-75
2023/10/17 03:03:50;;;;;;;6.23;3.23;;;8.40;99.90;;;;;;4916302;29;20245;-75
2023/10/17 03:06:18;;;;;;;6.17;3.30;;;8.50;99.90;;;;;;4916316;29;20209;-75
2023/10/17 03:08:51;;;;;;;6.50;3.10;;;8.40;99.90;;;;;;4916613;29;20206;-76
2023/10/17 03:11:27;;;;;;;5.73;3.10;;;8.50;99.90;;;;;;4918651;29;20713;-76
2023/10/17 03:13:56;;;;;;;5.90;2.70;;;8.50;99.90;;;;;;4919749;29;20209;-76
2023/10/17 03:16:25;;;;;;;4.20;2.33;;;8.70;99.90;;;;;;4919734;29;20304;-76
2023/10/17 03:18:56;;;;;;;8.07;2.80;;;8.70;99.90;;;;;;4919817;29;20572;-75
2023/10/17 03:21:33;;;;;;;6.50;2.70;;;8.60;99.90;;;;;;4919566;29;20300;-75
2023/10/17 03:24:04;;;;;;;4.93;2.83;;;8.50;99.90;;;;;;4919588;29;20217;-76
2023/10/17 03:26:39;;;;;;;5.33;2.37;;;8.60;99.90;;;;;;4919256;29;20308;-77
2023/10/17 03:29:18;;;;;;;3.93;2.23;;;8.60;99.90;;;;;;4919299;29;20223;-76
2023/10/17 03:31:48;;;;;;;6.00;2.43;;;8.90;99.90;;;;;;4919221;29;20232;-77
2023/10/17 03:34:19;;;;;;;8.57;2.73;;;8.90;99.90;;;;;;4919187;29;20736;-76
2023/10/17 03:36:50;;;;;;;7.50;2.67;;;8.70;99.90;;;;;;4919344;29;20253;-76
2023/10/17 03:39:21;;;;;;;6.90;2.87;;;8.70;99.90;;;;;;4919191;29;20606;-76
2023/10/17 03:41:49;;;;;;;7.03;2.80;;;8.60;99.90;;;;;;4919240;29;20244;-76
2023/10/17 03:44:22;;;;;;;4.20;2.33;;;8.60;99.90;;;;;;4919186;29;20233;-77
2023/10/17 03:46:50;;;;;;;6.13;2.90;;;8.40;99.90;;;;;;4919318;29;20227;-77
2023/10/17 03:49:19;;;;;;;9.57;2.63;;;8.30;99.90;;;;;;4919109;29;20439;-76
2023/10/17 03:51:52;;;;;;;6.53;2.10;;;8.20;99.90;;;;;;4918671;29;20800;-76
2023/10/17 03:54:22;;;;;;;6.20;2.80;;;8.30;99.90;;;;;;4919212;29;20213;-76
2023/10/17 03:56:56;;;;;;;5.83;2.87;;;8.50;99.90;;;;;;4919183;29;20213;-75
2023/10/17 03:59:38;;;;;;;4.67;2.43;;;8.50;99.90;;;;;;4919159;29;20216;-76
2023/10/17 04:02:11;;;;;;;5.23;2.83;;;8.50;99.90;;;;;;4918814;29;20236;-76
2023/10/17 04:04:49;;;;;;;9.13;2.67;;;8.50;99.90;;;;;;4918815;29;20209;-77
2023/10/17 04:07:17;;;;;;;6.37;2.90;;;8.60;99.90;;;;;;4919069;29;20213;-76
2023/10/17 04:09:52;;;;;;;6.60;2.47;;;8.50;99.90;;;;;;4919135;29;20218;-76
2023/10/17 04:12:25;;;;;;;3.10;1.77;;;8.40;99.90;;;;;;4918856;29;20205;-75
2023/10/17 04:14:58;;;;;;;5.00;2.20;;;8.30;99.90;;;;;;4918627;29;20363;-75
2023/10/17 04:17:29;;;;;;;4.50;2.63;;;8.40;99.90;;;;;;4918901;29;20210;-76
2023/10/17 04:20:09;;;;;;;4.83;2.20;;;8.50;99.90;;;;;;4918429;29;20810;-75
2023/10/17 04:22:38;;;;;;;3.30;1.80;;;8.60;99.90;;;;;;4917751;29;20214;-75
2023/10/17 04:25:19;;;;;;;4.83;2.10;;;8.50;99.90;;;;;;4918512;29;20269;-75
2023/10/17 04:27:51;;;;;;;5.93;2.43;;;8.40;99.90;;;;;;4918861;29;20214;-75
2023/10/17 04:30:26;;;;;;;5.07;2.60;;;8.40;99.90;;;;;;4918490;29;20238;-75
2023/10/17 04:33:05;;;;;;;4.90;1.90;;;8.30;99.90;;;;;;4918430;29;20220;-75
2023/10/17 04:35:32;;;;;;;4.83;2.03;;;8.30;99.90;;;;;;4918337;29;20235;-75
2023/10/17 04:38:09;;;;;;;6.03;1.97;;;8.30;99.90;;;;;;4918502;29;20241;-75
2023/10/17 04:40:42;;;;;;;6.53;2.50;;;8.30;99.90;;;;;;4918045;29;20701;-75
2023/10/17 04:45:56;;;;;;;5.20;2.30;;;8.30;99.90;;;;;;4911153;29;20205;-75
2023/10/17 04:48:32;;;;;;;5.33;2.13;;;8.40;99.90;;;;;;4918018;29;20373;-76
2023/10/17 04:51:12;;;;;;;5.07;2.53;;;8.40;99.90;;;;;;4917880;29;20240;-75
2023/10/17 04:53:47;;;;;;;3.53;1.50;;;8.40;99.90;;;;;;4918117;29;20585;-75
2023/10/17 04:56:16;;;;;;;5.10;1.90;;;8.40;99.90;;;;;;4917749;29;20213;-75
2023/10/17 04:58:48;;;;;;;5.90;2.03;;;8.40;99.90;;;;;;4918350;29;20296;-75
2023/10/17 05:01:34;;;;;;;7.50;2.37;;;8.40;99.90;;;;;;4917586;29;20748;-75
2023/10/17 05:04:13;;;;;;;5.63;1.50;;;8.30;99.90;;;;;;4917670;29;20686;-75
2023/10/17 06:17:54;;;;;;;4.10;1.90;;;8.20;99.90;;;;;;4916784;29;20209;-77
2023/10/17 06:20:44;;;;;;;4.30;1.30;;;8.20;99.90;;;;;;4916583;29;20265;-77
2023/10/17 06:26:46;;;;;;;2.83;1.47;;;8.20;99.90;;;;;;4916469;29;20296;-75
2023/10/17 06:31:55;;;;;;;2.53;1.33;;;8.20;99.90;;;;;;4916279;29;20221;-76
2023/10/17 06:34:22;;;;;;;2.30;1.10;;;8.20;99.90;;;;;;4916391;29;20681;-77
2023/10/17 06:36:58;;;;;;;3.03;1.10;;;8.10;99.90;;;;;;4916854;29;20220;-77
2023/10/17 06:39:26;;;;;;;2.07;1.03;;;8.00;99.90;;;;;;4916971;29;20232;-76
2023/10/17 06:42:09;;;;;;;3.20;1.40;;;8.00;99.90;;;;;;4916657;29;20245;-77
2023/10/17 06:44:44;;;;;;;5.00;1.67;;;8.10;99.90;;;;;;4916683;29;20609;-76
2023/10/17 06:47:17;;;;;;;2.93;1.10;;;8.00;99.90;;;;;;4920499;29;20209;-77
2023/10/17 06:50:16;;;;;;;2.73;1.17;;;8.10;99.90;;;;;;4920402;29;20205;-76
2023/10/17 06:52:40;;;;;;;2.10;1.07;;;8.20;99.90;;;;;;4920116;29;20206;-77
2023/10/17 06:55:07;;;;;;;2.20;1.00;;;8.20;99.90;;;;;;4920085;29;20209;-77
2023/10/17 06:57:36;;;;;;;2.47;1.20;;;8.20;99.90;;;;;;4920410;29;20305;-77
2023/10/17 07:00:16;;;;;;;2.27;0.90;;;8.20;99.90;;;;;;4920062;29;20232;-77
2023/10/17 07:02:48;;;;;;;3.53;1.13;;;8.30;99.90;;;;;;4919721;29;20253;-77
2023/10/17 07:05:21;;;;;;;2.70;1.37;;;8.40;99.90;;;;;;4919506;29;20209;-77
2023/10/17 07:07:52;;;;;;;3.00;1.30;;;8.50;99.90;;;;;;4919780;29;20252;-76
2023/10/17 07:10:37;;;;;;;3.70;1.30;;;8.60;99.90;;;;;;4919958;29;20719;-77
2023/10/17 07:13:42;;;;;;;4.33;1.20;;;8.60;99.90;;;;;;4919677;29;20773;-77
2023/10/17 07:16:12;;;;;;;1.93;1.30;;;8.60;99.90;;;;;;4919746;29;20296;-76
2023/10/17 07:18:45;;;;;;;3.27;1.33;;;8.60;99.90;;;;;;4919631;29;20206;-76
2023/10/17 07:21:22;;;;;;;3.13;1.40;;;8.70;99.90;;;;;;4919420;29;20241;-76
2023/10/17 07:23:49;;;;;;;3.10;1.40;;;8.80;99.90;;;;;;4919414;29;20691;-75
2023/10/17 07:26:35;;;;;;;2.33;1.40;;;8.90;99.90;;;;;;4919169;29;20249;-75
2023/10/17 07:29:05;;;;;;;2.23;1.43;;;8.90;99.90;;;;;;4919526;29;20304;-74
2023/10/17 07:31:33;;;;;;;2.73;1.23;;;8.80;99.90;;;;;;4920013;29;20233;-75
2023/10/17 07:34:18;;;;;;;2.93;1.20;;;8.80;99.90;;;;;;4919612;29;20249;-74
2023/10/17 07:36:48;;;;;;;1.77;1.00;;;8.60;99.90;;;;;;4919231;29;20218;-75
2023/10/17 07:39:24;;;;;;;3.50;1.00;;;8.60;99.90;;;;;;4919586;29;20206;-75
2023/10/17 07:41:55;;;;;;;1.80;1.17;;;8.60;99.90;;;;;;4919103;29;20332;-75
2023/10/17 07:44:25;;;;;;;5.00;1.30;;;8.70;99.90;;;;;;4919328;29;20269;-75
2023/10/17 07:47:08;;;;;;;2.10;1.20;;;8.80;99.90;;;;;;4919215;29;20237;-75
2023/10/17 07:49:36;;;;;;;3.17;1.20;;;8.80;99.90;;;;;;4919003;29;20205;-74
2023/10/17 07:52:10;;;;;;;3.70;1.53;;;8.80;99.90;;;;;;4918776;29;20240;-74
2023/10/17 07:54:45;;;;;;;2.60;1.27;;;8.80;99.90;;;;;;4918978;29;20218;-77
2023/10/17 07:57:17;;;;;;;1.87;1.13;;;8.80;99.90;;;;;;4918023;29;20308;-77
2023/10/17 07:59:50;;;;;;;3.67;1.30;;;8.80;99.90;;;;;;4918916;29;20261;-77
2023/10/17 08:02:20;;;;;;;2.40;0.97;;;9.00;99.90;;;;;;4919145;29;20297;-77
2023/10/17 08:04:49;;;;;;;2.13;1.20;;;8.90;99.90;;;;;;4918873;29;20245;-77
2023/10/17 08:07:20;;;;;;;2.40;1.20;;;9.10;99.90;;;;;;4918976;29;20249;-74
2023/10/17 08:09:56;;;;;;;3.10;1.20;;;9.00;99.90;;;;;;4918702;29;20220;-76
2023/10/17 08:12:23;;;;;;;2.93;1.10;;;9.00;99.90;;;;;;4919274;29;20233;-74
2023/10/17 08:14:57;;;;;;;2.30;1.50;;;9.10;99.90;;;;;;4918870;29;20233;-77
2023/10/17 08:17:34;;;;;;;2.73;1.20;;;9.10;99.90;;;;;;4918562;29;20213;-77
2023/10/17 08:20:00;;;;;;;5.23;1.30;;;9.00;99.90;;;;;;4918425;29;20213;-77
2023/10/17 08:22:53;;;;;;;2.10;1.20;;;8.90;99.90;;;;;;4918555;29;20241;-77
2023/10/17 08:25:14;;;;;;;3.27;1.23;;;9.00;99.90;;;;;;4918394;29;20221;-74
2023/10/17 08:27:45;;;;;;;5.70;1.63;;;9.20;99.90;;;;;;4918862;29;20581;-74
2023/10/17 08:30:23;;;;;;;1.80;1.20;;;9.10;99.90;;;;;;4918447;29;20248;-74
2023/10/17 08:33:09;;;;;;;2.23;1.13;;;9.10;99.90;;;;;;4918214;29;20755;-77
2023/10/17 08:35:37;;;;;;;1.77;1.07;;;9.20;99.90;;;;;;4918551;29;20212;-75
2023/10/17 08:38:06;;;;;;;3.67;1.50;;;9.20;99.90;;;;;;4918292;29;20209;-74
2023/10/17 08:40:32;;;;;;;3.57;1.20;;;9.30;99.90;;;;;;4917715;29;20236;-74
2023/10/17 08:43:02;;;;;;;1.63;1.07;;;9.40;99.90;;;;;;4917926;29;20213;-74
2023/10/17 08:45:36;;;;;;;1.53;1.07;;;9.50;99.90;;;;;;4917731;29;20221;-74
2023/10/17 08:48:08;;;;;;;1.83;1.10;;;9.60;99.90;;;;;;4918111;29;20214;-77
2023/10/17 08:50:39;;;;;;;3.30;1.40;;;9.60;99.90;;;;;;4917711;29;20314;-77
2023/10/17 08:53:12;;;;;;;3.40;1.63;;;9.70;99.90;;;;;;4918153;29;20213;-74
2023/10/17 08:55:41;;;;;;;3.70;1.47;;;9.80;99.90;;;;;;4918291;29;20213;-79
2023/10/17 08:58:09;;;;;;;2.10;1.10;;;10.10;99.90;;;;;;4917777;29;20221;-77
2023/10/17 09:00:56;;;;;;;2.63;1.27;;;10.40;99.90;;;;;;4917873;29;20704;-76
2023/10/17 09:03:29;;;;;;;3.00;1.03;;;10.50;99.90;;;;;;4918117;29;20217;-77
2023/10/17 09:06:28;;;;;;;2.73;1.10;;;10.50;99.90;;;;;;4917973;29;20214;-75
2023/10/17 09:09:00;;;;;;;1.53;1.00;;;10.40;99.90;;;;;;4917110;29;20209;-77
2023/10/17 09:11:41;;;;;;;1.90;1.27;;;10.40;99.90;;;;;;4917516;29;20708;-72
2023/10/17 09:14:24;;;;;;;2.23;1.03;;;10.50;99.90;;;;;;4913524;29;20542;-74
2023/10/17 09:17:03;;;;;;;2.83;1.30;;;10.30;99.90;;;;;;4916932;29;20213;-73
2023/10/17 09:19:46;;;;;;;6.23;1.57;;;10.10;99.90;;;;;;4917352;29;20216;-76
2023/10/17 09:22:14;;;;;;;2.57;1.43;;;10.10;99.90;;;;;;4916718;29;20240;-71
2023/10/17 09:24:45;;;;;;;4.03;1.30;;;10.10;99.90;;;;;;4917206;29;20301;-73
2023/10/17 09:27:14;;;;;;;2.80;1.30;;;10.00;99.90;;;;;;4916990;29;20224;-74
2023/10/17 09:29:50;;;;;;;2.20;1.50;;;9.90;99.90;;;;;;4917494;29;20265;-73
2023/10/17 09:32:34;;;;;;;2.13;1.23;;;10.10;99.90;;;;;;4916837;29;20219;-74
2023/10/17 09:35:10;;;;;;;5.10;1.27;;;10.10;99.90;;;;;;4917098;29;20583;-75
2023/10/17 09:37:41;;;;;;;2.33;1.10;;;10.10;99.90;;;;;;4916619;29;20216;-73
2023/10/17 09:40:12;;;;;;;2.63;1.10;;;10.00;99.90;;;;;;4916897;29;20732;-73
2023/10/17 09:42:44;;;;;;;3.33;1.30;;;10.00;99.90;;;;;;4916274;29;20241;-73
2023/10/17 09:45:11;;;;;;;4.10;1.37;;;10.00;99.90;;;;;;4916772;29;20716;-74
2023/10/17 09:47:44;;;;;;;2.60;1.03;;;10.10;99.90;;;;;;4916300;29;20688;-73
2023/10/17 09:50:16;;;;;;;2.73;0.97;;;10.10;99.90;;;;;;4916287;29;20281;-73
2023/10/17 09:52:45;;;;;;;4.57;1.20;;;10.00;99.90;;;;;;4916766;29;20206;-73
2023/10/17 09:55:14;;;;;;;1.27;0.90;;;10.10;99.90;;;;;;4916987;29;20214;-72
2023/10/17 09:57:50;;;;;;;3.67;0.90;;;10.20;99.90;;;;;;4916477;29;20696;-73
2023/10/17 10:00:37;;;;;;;2.77;1.00;;;10.20;99.90;;;;;;4916375;29;20315;-76
2023/10/17 10:03:06;;;;;;;2.77;1.10;;;10.40;99.90;;;;;;4916233;29;20240;-72
2023/10/17 10:05:34;;;;;;;3.47;1.70;;;10.50;99.90;;;;;;4916323;29;20681;-73
2023/10/17 10:08:02;;;;;;;1.67;1.00;;;10.40;99.90;;;;;;4916285;29;20233;-72
2023/10/17 10:10:56;;;;;;;1.83;1.07;;;10.40;99.90;;;;;;4916371;29;20238;-73
2023/10/17 10:13:24;;;;;;;2.13;1.03;;;10.50;99.90;;;;;;4893311;29;20217;-73
2023/10/17 10:15:58;;;;;;;3.50;1.23;;;10.70;99.90;;;;;;4916515;29;20665;-74
2023/10/17 10:18:57;;;;;;;1.87;0.90;;;10.70;99.90;;;;;;4916613;29;20244;-75
2023/10/17 10:21:53;;;;;;;2.30;0.90;;;10.70;99.90;;;;;;4919232;29;20237;-74
2023/10/17 10:24:26;;;;;;;1.57;0.90;;;10.60;99.90;;;;;;4919446;29;20748;-75
2023/10/17 10:27:19;;;;;;;1.70;1.17;;;10.50;99.90;;;;;;4920104;29;20256;-71
2023/10/17 10:29:49;;;;;;;1.83;0.90;;;10.50;99.90;;;;;;4920092;29;20212;-75
2023/10/17 10:32:42;;;;;;;2.97;0.80;;;10.60;99.90;;;;;;4920174;29;20210;-76
2023/10/17 10:35:11;;;;;;;1.90;1.00;;;10.70;99.90;;;;;;4911178;29;20213;-75
2023/10/17 10:37:52;;;;;;;1.13;0.90;;;10.70;99.90;;;;;;4919337;29;20213;-77
2023/10/17 10:40:24;;;;;;;1.23;0.90;;;10.90;99.90;;;;;;4920238;29;20284;-79
2023/10/17 10:42:52;;;;;;;1.80;1.00;;;11.00;99.90;;;;;;4920317;29;20237;-78
2023/10/17 10:45:31;;;;;;;1.43;0.80;;;11.10;99.90;;;;;;4920362;29;20244;-77
2023/10/17 10:47:59;;;;;;;1.47;0.87;;;11.20;99.90;;;;;;4920484;29;20553;-81
2023/10/17 10:50:30;;;;;;;1.37;0.70;;;11.20;99.90;;;;;;4920058;29;20233;-79
2023/10/17 10:53:01;;;;;;;3.63;1.20;;;11.20;99.90;;;;;;4920416;29;20214;-80
2023/10/17 10:55:30;;;;;;;2.70;1.13;;;11.30;99.90;;;;;;4920317;29;20253;-78
2023/10/17 10:58:00;;;;;;;2.03;0.80;;;11.40;99.90;;;;;;4920140;29;20673;-77
2023/10/17 11:00:28;;;;;;;0.97;0.60;;;11.50;99.90;;;;;;4920013;29;20233;-78
2023/10/17 11:02:56;;;;;;;1.13;0.70;;;11.50;99.90;;;;;;4919947;29;20237;-80
2023/10/17 11:05:23;;;;;;;2.23;0.70;;;11.50;99.90;;;;;;4919977;29;20213;-77
2023/10/17 11:08:01;;;;;;;3.00;1.07;;;11.50;99.90;;;;;;4919556;29;20666;-78
2023/10/17 11:10:29;;;;;;;3.00;1.00;;;11.60;99.90;;;;;;4919557;29;20320;-78
2023/10/17 11:12:56;;;;;;;2.47;2.00;;;11.70;99.90;;;;;;4919652;29;20221;-78
2023/10/17 11:15:27;;;;;;;2.17;0.80;;;11.80;99.90;;;;;;4919735;29;20277;-79
2023/10/17 11:18:03;;;;;;;3.50;1.07;;;11.80;99.90;;;;;;4919817;29;20546;-78
2023/10/17 11:20:30;;;;;;;1.50;0.80;;;11.80;99.90;;;;;;4919594;29;20311;-77
2023/10/17 11:22:57;;;;;;;2.77;0.90;;;11.70;99.90;;;;;;4919505;29;20958;-78
2023/10/17 11:25:27;;;;;;;3.77;1.20;;;11.80;99.90;;;;;;4919748;29;20264;-77
2023/10/17 11:27:56;;;;;;;1.27;0.80;;;11.90;99.90;;;;;;4919425;29;20214;-77
2023/10/17 11:30:32;;;;;;;1.43;0.70;;;12.10;99.90;;;;;;4919559;29;20316;-77
2023/10/17 11:33:04;;;;;;;1.90;0.80;;;12.10;99.90;;;;;;4919451;29;20622;-78
2023/10/17 11:35:34;;;;;;;1.10;0.80;;;12.10;99.90;;;;;;4919293;29;20578;-77
2023/10/17 11:38:01;;;;;;;2.10;0.60;;;12.10;99.90;;;;;;4918442;29;20661;-80
2023/10/17 11:40:39;;;;;;;0.90;0.60;;;12.20;99.90;;;;;;4914285;29;20289;-75
2023/10/17 11:43:18;;;;;;;2.80;0.70;;;12.40;99.90;;;;;;4910425;29;20245;-75
2023/10/17 11:45:45;;;;;;;2.33;0.87;;;12.40;99.90;;;;;;4915484;29;20348;-79
2023/10/17 11:48:27;;;;;;;2.13;0.63;;;12.30;99.90;;;;;;4917173;29;20249;-76
2023/10/17 11:51:15;;;;;;;1.30;0.87;;;12.20;99.90;;;;;;4917349;29;20233;-79
2023/10/17 11:54:03;;;;;;;1.93;0.67;;;12.30;99.90;;;;;;4917278;29;20252;-76
2023/10/17 11:56:32;;;;;;;1.73;0.70;;;12.40;99.90;;;;;;4916651;29;20305;-75
2023/10/17 11:59:01;;;;;;;1.43;0.70;;;12.30;99.90;;;;;;4917615;29;20205;-79
2023/10/17 12:01:28;;;;;;;1.57;0.97;;;12.50;99.90;;;;;;4917099;29;20225;-81
2023/10/17 12:03:56;;;;;;;0.97;0.60;;;12.60;99.90;;;;;;4917173;29;20277;-74
2023/10/17 12:06:26;;;;;;;2.33;0.60;;;12.60;99.90;;;;;;4916883;29;20256;-74
2023/10/17 12:08:54;;;;;;;0.80;0.53;;;12.60;99.90;;;;;;4916531;29;20240;-76
2023/10/17 12:11:21;;;;;;;2.60;0.60;;;12.60;99.90;;;;;;4917034;29;20265;-77
2023/10/17 12:13:49;;;;;;;1.63;1.00;;;12.60;99.90;;;;;;4916267;29;20216;-76
2023/10/17 12:16:17;;;;;;;1.63;0.67;;;12.60;99.90;;;;;;4917282;29;20261;-74
2023/10/17 12:18:45;;;;;;;1.60;0.40;;;12.60;99.90;;;;;;4916618;29;20729;-75
2023/10/17 12:21:14;;;;;;;1.43;0.67;;;12.70;99.90;;;;;;4916815;29;20721;-73
2023/10/17 12:23:41;;;;;;;1.70;0.60;;;12.80;99.90;;;;;;4916452;29;20237;-74
2023/10/17 12:26:13;;;;;;;3.23;0.70;;;12.70;99.90;;;;;;4916170;29;20225;-74
2023/10/17 12:28:42;;;;;;;0.93;0.60;;;12.70;99.90;;;;;;4916323;29;20269;-74
2023/10/17 12:31:10;;;;;;;3.53;0.60;;;12.80;99.90;;;;;;4916834;29;20256;-73
2023/10/17 12:33:37;;;;;;;1.10;0.70;;;12.80;99.90;;;;;;4916155;29;20621;-72
2023/10/17 12:36:06;;;;;;;3.13;0.70;;;12.80;99.90;;;;;;4916404;29;20732;-74
2023/10/17 12:38:36;;;;;;;1.13;0.50;;;12.80;99.90;;;;;;4915610;29;20216;-74
2023/10/17 12:41:06;;;;;;;3.53;0.60;;;12.90;99.90;;;;;;4916561;29;20225;-77
2023/10/17 12:43:34;;;;;;;1.13;0.60;;;12.90;99.90;;;;;;4915454;29;20237;-74
2023/10/17 12:46:01;;;;;;;1.00;0.60;;;12.90;99.90;;;;;;4916616;29;20334;-76
2023/10/17 12:48:29;;;;;;;1.73;0.77;;;13.00;99.90;;;;;;4915944;29;20237;-75
2023/10/17 12:50:56;;;;;;;5.27;0.67;;;13.00;99.90;;;;;;4916384;29;20265;-73
2023/10/17 12:53:23;;;;;;;1.97;0.70;;;12.90;99.90;;;;;;4915874;29;20756;-73
2023/10/17 12:55:50;;;;;;;1.17;0.60;;;12.90;99.90;;;;;;4916193;29;20316;-75
2023/10/17 12:58:22;;;;;;;1.20;0.60;;;12.80;99.90;;;;;;4916100;29;20257;-74
2023/10/17 13:00:50;;;;;;;2.83;0.73;;;12.90;99.90;;;;;;4916395;29;20255;-74
2023/10/17 13:03:18;;;;;;;1.50;0.50;;;13.00;99.90;;;;;;4916066;29;20238;-74
2023/10/17 13:05:50;;;;;;;1.63;0.60;;;13.00;99.90;;;;;;4897854;29;20380;-73
2023/10/17 13:08:17;;;;;;;1.00;0.50;;;12.90;99.90;;;;;;4915824;29;20217;-76
2023/10/17 13:10:44;;;;;;;3.03;0.83;;;12.90;99.90;;;;;;4916445;29;20241;-74
2023/10/17 13:13:12;;;;;;;0.90;0.40;;;12.90;99.90;;;;;;4915666;29;20243;-76
2023/10/17 13:15:39;;;;;;;1.20;0.50;;;13.00;99.90;;;;;;4915764;29;20296;-74
2023/10/17 13:18:08;;;;;;;0.77;0.50;;;13.20;99.90;;;;;;4915442;29;20245;-76
2023/10/17 13:20:35;;;;;;;2.60;0.60;;;13.20;99.90;;;;;;4915299;29;20257;-75
2023/10/17 13:23:04;;;;;;;0.87;0.60;;;13.20;99.90;;;;;;4916541;29;20324;-80
2023/10/17 13:25:36;;;;;;;0.87;0.50;;;13.30;99.90;;;;;;4917377;29;20213;-79
2023/10/17 13:28:03;;;;;;;1.03;0.83;;;13.20;99.90;;;;;;4917152;29;20664;-80
2023/10/17 13:30:31;;;;;;;1.20;0.50;;;13.30;99.90;;;;;;4917509;29;20599;-80
2023/10/17 13:32:58;;;;;;;1.77;0.60;;;13.30;99.90;;;;;;4917139;29;20210;-77
2023/10/17 13:35:26;;;;;;;1.07;0.60;;;13.30;99.90;;;;;;4916948;29;20269;-80
2023/10/17 13:37:54;;;;;;;1.40;0.70;;;13.30;99.90;;;;;;4917187;29;20213;-79
2023/10/17 13:40:24;;;;;;;1.43;0.60;;;13.30;99.90;;;;;;4917282;29;20317;-80
2023/10/17 13:42:52;;;;;;;3.20;0.70;;;13.30;99.90;;;;;;4917227;29;20323;-82
2023/10/17 13:45:21;;;;;;;1.43;0.70;;;13.40;99.90;;;;;;4917153;29;20232;-77
2023/10/17 13:47:49;;;;;;;2.17;0.87;;;13.30;99.90;;;;;;4916964;29;20589;-80
2023/10/17 13:50:18;;;;;;;4.13;0.80;;;13.20;99.90;;;;;;4916877;29;20719;-81
2023/10/17 13:52:46;;;;;;;1.87;1.10;;;13.10;99.90;;;;;;4916775;29;20305;-80
2023/10/17 13:55:14;;;;;;;1.50;0.60;;;13.10;99.90;;;;;;4917333;29;20215;-75
2023/10/17 13:57:46;;;;;;;0.90;0.67;;;13.00;99.90;;;;;;4917155;29;20213;-76
2023/10/17 14:00:19;;;;;;;0.70;0.53;;;13.10;99.90;;;;;;4917023;29;20685;-81
2023/10/17 14:02:49;;;;;;;1.13;0.53;;;13.10;99.90;;;;;;4917196;29;20662;-80
2023/10/17 14:05:18;;;;;;;1.07;0.60;;;13.10;99.90;;;;;;4916912;29;20477;-79
2023/10/17 14:07:45;;;;;;;1.30;0.60;;;13.10;99.90;;;;;;4917017;29;20217;-80
2023/10/17 14:10:12;;;;;;;1.13;0.60;;;13.10;99.90;;;;;;4916528;29;20230;-81
2023/10/17 14:12:41;;;;;;;4.90;0.60;;;13.10;99.90;;;;;;4916679;29;20217;-80
2023/10/17 14:15:10;;;;;;;1.63;0.50;;;13.10;99.90;;;;;;4916867;29;20214;-82
2023/10/17 14:17:44;;;;;;;1.63;0.57;;;13.10;99.90;;;;;;4916894;29;20237;-80
2023/10/17 14:20:17;;;;;;;2.60;0.70;;;13.00;99.90;;;;;;4916472;29;20229;-81
2023/10/17 14:23:08;;;;;;;2.53;0.67;;;13.10;99.90;;;;;;4916780;29;20237;-83
2023/10/17 14:28:19;;;;;;;0.67;0.47;;;13.10;99.90;;;;;;4916906;29;20569;-79
2023/10/17 14:30:47;;;;;;;1.17;0.50;;;13.00;99.90;;;;;;4916734;29;20257;-81
2023/10/17 14:33:14;;;;;;;3.47;0.80;;;13.00;99.90;;;;;;4916823;29;20255;-81
2023/10/17 14:35:43;;;;;;;1.47;0.70;;;13.00;99.90;;;;;;4916653;29;20265;-80
2023/10/17 14:38:10;;;;;;;1.00;0.60;;;13.00;99.90;;;;;;4916284;29;20234;-81
2023/10/17 14:40:38;;;;;;;1.07;0.60;;;13.10;99.90;;;;;;4916423;29;20226;-81